Barwick, Canada
Current Conditions -  °F | °C
As of 9:02 AM on Monday 22 Dec 2014 (Local Time) from KINL Reporting Station
Light Snow Light Snow  
Wind Chill: 27°   Ceiling: 400
Heat Index: 33°   Visibility: 1.7mi
Dew Point: 32°   Wind: 7mph
Humidity: 96%   Direction: 110°ESE
Pressure: 29.65"   Gusts: NA
Location:  48.65°N, 93.98°W
Report Text: KINL 221502Z AUTO 11006KT 1 3/4SM -SN BR OVC004 01/00 A2965 RMK AO2 P0000 T00060000
Loading
Personal Weather Stations






























Interactive Weather Map New forecast layout! Learn more

10-Day Weather Forecast

Advertisements
Track Severe Weather on mobile